createdAt,value
2018-11-25T00:00:54.977Z,40.70
2018-11-25T00:01:54.994Z,41.20
2018-11-25T00:02:54.845Z,42.30
2018-11-25T00:03:54.777Z,42.80
2018-11-25T00:04:54.652Z,43.50
2018-11-25T00:05:54.600Z,42.30
2018-11-25T00:06:54.490Z,42.40
2018-11-25T00:07:54.512Z,43.20
2018-11-25T00:08:54.300Z,43.40
2018-11-25T00:09:54.304Z,42.50
2018-11-25T00:10:54.124Z,40.30
2018-11-25T00:11:54.154Z,40.20
2018-11-25T00:12:54.027Z,41.70
2018-11-25T00:13:53.938Z,39.90
2018-11-25T00:14:53.797Z,40.50
2018-11-25T00:15:53.734Z,39.80
2018-11-25T00:16:53.661Z,38.60
2018-11-25T00:17:53.680Z,39.70
2018-11-25T00:18:53.496Z,40.30
2018-11-25T00:19:53.446Z,39.20
2018-11-25T00:20:53.305Z,39.10
2018-11-25T00:21:53.267Z,41.20
2018-11-25T00:22:53.135Z,40.30
2018-11-25T00:23:53.061Z,39.20
2018-11-25T00:24:52.945Z,39.10
2018-11-25T00:25:52.877Z,38.10
2018-11-25T00:26:52.777Z,40.00
2018-11-25T00:27:52.864Z,38.50
2018-11-25T00:28:52.600Z,38.90
2018-11-25T00:29:52.590Z,39.30
2018-11-25T00:30:52.421Z,38.10
2018-11-25T00:31:52.426Z,36.60
2018-11-25T00:32:52.311Z,36.50
2018-11-25T00:33:52.256Z,36.90
2018-11-25T00:34:52.076Z,38.10
2018-11-25T00:35:52.141Z,38.90
2018-11-25T00:36:51.906Z,38.90
2018-11-25T00:37:51.960Z,38.70
2018-11-25T00:38:51.778Z,37.30
2018-11-25T00:39:51.748Z,37.10
2018-11-25T00:40:51.561Z,37.80
2018-11-25T00:41:51.572Z,37.70
2018-11-25T00:42:51.430Z,38.00
2018-11-25T00:43:51.386Z,39.90
2018-11-25T00:44:51.271Z,39.50
2018-11-25T00:45:51.281Z,41.20
2018-11-25T00:46:51.080Z,40.00
2018-11-25T00:47:51.109Z,41.30
2018-11-25T00:48:50.879Z,41.00
2018-11-25T00:49:50.895Z,41.70
2018-11-25T00:50:50.728Z,40.00
2018-11-25T00:51:50.706Z,40.80
2018-11-25T00:52:50.552Z,41.80
2018-11-25T00:53:50.540Z,40.30
2018-11-25T00:54:50.399Z,41.60
2018-11-25T00:55:50.420Z,41.50
2018-11-25T00:56:50.219Z,41.00
2018-11-25T00:57:50.237Z,40.80
2018-11-25T00:58:50.041Z,40.80
2018-11-25T00:59:50.073Z,40.10
2018-11-25T01:00:49.857Z,38.90
2018-11-25T01:01:49.840Z,39.90
2018-11-25T01:02:49.720Z,38.90
2018-11-25T01:05:31.961Z,40.20
2018-11-25T01:06:34.103Z,40.10
2018-11-25T01:07:31.782Z,39.80
2018-11-25T01:08:34.223Z,38.30
2018-11-25T01:09:31.587Z,39.70
2018-11-25T01:10:34.383Z,38.90
2018-11-25T01:11:31.416Z,38.80
2018-11-25T01:14:17.413Z,38.40
2018-11-25T01:15:17.410Z,40.20
2018-11-25T01:16:17.244Z,40.50
2018-11-25T01:17:17.297Z,41.00
2018-11-25T01:18:17.072Z,40.30
2018-11-25T01:19:17.090Z,41.30
2018-11-25T01:20:16.967Z,41.20
2018-11-25T01:21:16.910Z,39.70
2018-11-25T01:22:16.726Z,38.90
2018-11-25T01:23:16.730Z,40.10
2018-11-25T01:24:16.567Z,40.70
2018-11-25T01:25:16.521Z,42.10
2018-11-25T01:26:16.421Z,40.70
2018-11-25T01:27:16.437Z,41.10
2018-11-25T01:28:16.225Z,40.80
2018-11-25T01:29:16.240Z,42.40
2018-11-25T01:30:16.083Z,43.20
2018-11-25T01:32:57.929Z,43.30
2018-11-25T01:35:39.962Z,41.20
2018-11-25T01:37:00.804Z,38.70
2018-11-25T01:37:39.750Z,39.40
2018-11-25T01:38:39.747Z,38.20
2018-11-25T01:39:39.569Z,39.10
2018-11-25T01:40:39.553Z,41.40
2018-11-25T01:41:39.423Z,40.00
2018-11-25T01:44:18.014Z,41.10
2018-11-25T01:44:18.526Z,40.60
2018-11-25T01:45:18.487Z,42.50
2018-11-25T01:46:18.351Z,43.50
2018-11-25T01:47:18.336Z,43.70
2018-11-25T01:48:18.170Z,44.60
2018-11-25T01:49:18.212Z,45.40
2018-11-25T01:50:18.010Z,46.00
2018-11-25T01:51:18.053Z,48.70
2018-11-25T01:52:17.862Z,47.30
2018-11-25T01:53:17.827Z,49.40
2018-11-25T01:54:17.663Z,48.90
2018-11-25T01:55:17.628Z,47.60
2018-11-25T01:56:17.488Z,48.20
2018-11-25T01:57:17.488Z,49.30
2018-11-25T01:58:17.322Z,48.50
2018-11-25T01:59:17.359Z,49.50
2018-11-25T02:00:17.164Z,47.60
2018-11-25T02:01:17.177Z,50.10
2018-11-25T02:02:16.995Z,47.90
2018-11-25T02:03:16.971Z,48.90
2018-11-25T02:04:16.804Z,49.50
2018-11-25T02:05:16.778Z,49.70
2018-11-25T02:06:16.632Z,48.30
2018-11-25T02:07:16.645Z,48.30
2018-11-25T02:08:16.491Z,47.70
2018-11-25T02:09:16.510Z,48.60
2018-11-25T02:10:16.310Z,47.50
2018-11-25T02:11:16.326Z,47.40
2018-11-25T02:12:16.170Z,47.20
2018-11-25T02:13:16.118Z,48.30
2018-11-25T02:14:15.955Z,46.50
2018-11-25T02:15:15.931Z,48.00
2018-11-25T02:16:15.783Z,45.90
2018-11-25T02:17:15.743Z,45.60
2018-11-25T02:18:15.640Z,45.30
2018-11-25T02:19:15.672Z,44.40
2018-11-25T02:20:15.437Z,43.00
2018-11-25T02:21:15.464Z,42.40
2018-11-25T02:22:15.271Z,42.30
2018-11-25T02:23:15.300Z,39.80
2018-11-25T02:24:15.091Z,39.80
2018-11-25T02:25:15.071Z,40.40
2018-11-25T02:26:14.927Z,40.20
2018-11-25T02:27:14.883Z,39.60
2018-11-25T02:28:14.791Z,38.80
2018-11-25T02:30:56.923Z,37.80
2018-11-25T02:31:56.891Z,38.20
2018-11-25T02:32:56.780Z,35.30
2018-11-25T02:33:56.730Z,34.70
2018-11-25T02:34:56.587Z,35.40
2018-11-25T02:35:56.615Z,35.80
2018-11-25T02:36:56.417Z,36.10
2018-11-25T02:37:56.429Z,35.40
2018-11-25T02:38:56.270Z,36.10
2018-11-25T02:39:56.260Z,34.50
2018-11-25T02:40:56.075Z,34.80
2018-11-25T02:43:37.931Z,35.90
2018-11-25T02:44:37.966Z,35.20
2018-11-25T02:45:37.760Z,35.70
2018-11-25T02:46:37.739Z,35.40
2018-11-25T02:47:37.640Z,34.50
2018-11-25T02:48:37.547Z,34.10
2018-11-25T02:49:37.463Z,34.80
2018-11-25T02:50:37.362Z,34.30
2018-11-25T02:51:37.254Z,34.00
2018-11-25T02:52:37.268Z,33.40
2018-11-25T02:53:37.068Z,33.70
2018-11-25T02:54:37.121Z,33.40
2018-11-25T02:55:36.903Z,32.80
2018-11-25T02:58:18.930Z,31.90
2018-11-25T02:59:39.955Z,31.80
2018-11-25T03:00:18.755Z,32.20
2018-11-25T03:01:18.800Z,33.10
2018-11-25T03:02:41.749Z,33.10
2018-11-25T03:03:18.504Z,32.50
2018-11-25T03:04:18.556Z,33.10
2018-11-25T03:05:18.322Z,33.00
2018-11-25T03:06:18.361Z,32.70
2018-11-25T03:07:18.180Z,33.20
2018-11-25T03:08:18.124Z,34.50
2018-11-25T03:09:17.988Z,34.90
2018-11-25T03:13:04.968Z,34.30
2018-11-25T03:14:04.973Z,35.80
2018-11-25T03:15:04.771Z,36.20
2018-11-25T03:16:04.784Z,37.20
2018-11-25T03:17:04.597Z,37.80
2018-11-25T03:18:04.616Z,36.50
2018-11-25T03:19:04.440Z,37.20
2018-11-25T03:26:40.969Z,37.80
2018-11-25T03:27:40.982Z,41.20
2018-11-25T03:28:40.794Z,39.40
2018-11-25T03:29:40.786Z,39.70
2018-11-25T03:30:40.600Z,41.00
2018-11-25T03:31:41.667Z,40.40
2018-11-25T03:32:40.434Z,39.70
2018-11-25T03:33:40.425Z,40.70
2018-11-25T03:34:40.264Z,42.20
2018-11-25T03:35:40.231Z,40.60
2018-11-25T03:36:40.140Z,41.60
2018-11-25T03:37:40.121Z,41.00
2018-11-25T03:38:39.937Z,42.00
2018-11-25T03:39:39.943Z,41.50
2018-11-25T03:40:39.746Z,39.40
2018-11-25T03:41:39.768Z,38.50
2018-11-25T03:42:39.626Z,38.90
2018-11-25T03:43:39.564Z,39.50
2018-11-25T03:44:39.397Z,40.10
2018-11-25T03:45:39.366Z,40.70
2018-11-25T03:46:39.229Z,42.00
2018-11-25T03:47:39.197Z,42.40
2018-11-25T03:48:39.077Z,42.30
2018-11-25T03:49:39.080Z,43.00
2018-11-25T03:50:38.899Z,44.20
2018-11-25T03:51:38.893Z,44.40
2018-11-25T03:52:38.751Z,47.50
2018-11-25T03:53:38.713Z,48.10
2018-11-25T03:54:38.544Z,48.80
2018-11-25T03:57:20.440Z,48.80
2018-11-25T03:58:20.441Z,47.90
2018-11-25T03:59:20.264Z,48.00
2018-11-25T04:00:20.221Z,48.10
2018-11-25T04:01:20.097Z,47.70
2018-11-25T04:02:20.130Z,48.10
2018-11-25T04:03:19.961Z,47.20
2018-11-25T04:04:19.934Z,48.00
2018-11-25T04:05:19.755Z,49.30
2018-11-25T04:06:19.733Z,49.00
2018-11-25T04:07:19.595Z,49.60
2018-11-25T04:08:19.576Z,48.20
2018-11-25T04:09:19.435Z,48.80
2018-11-25T04:10:19.368Z,48.90
2018-11-25T04:11:19.234Z,49.70
2018-11-25T04:12:19.265Z,50.00
2018-11-25T04:13:19.095Z,49.80
2018-11-25T04:14:19.080Z,51.80
2018-11-25T04:15:18.904Z,52.00
2018-11-25T04:16:18.883Z,50.90
2018-11-25T04:17:18.777Z,51.20
2018-11-25T04:18:18.723Z,52.20
2018-11-25T04:19:18.575Z,52.40
2018-11-25T04:20:18.544Z,52.30
2018-11-25T04:25:42.535Z,53.10
2018-11-25T04:26:42.359Z,53.80
2018-11-25T04:27:42.307Z,54.30
2018-11-25T04:28:42.185Z,52.80
2018-11-25T04:29:42.252Z,51.80
2018-11-25T04:30:42.016Z,54.40
2018-11-25T04:31:42.017Z,57.00
2018-11-25T04:32:41.844Z,57.20
2018-11-25T04:33:41.836Z,55.00
2018-11-25T04:34:41.693Z,55.90
2018-11-25T04:35:41.641Z,56.80
2018-11-25T04:36:41.510Z,54.80
2018-11-25T04:37:41.555Z,56.30
2018-11-25T04:38:41.332Z,55.40
2018-11-25T04:39:41.368Z,55.40
2018-11-25T04:40:41.198Z,55.00
2018-11-25T04:41:41.175Z,55.20
2018-11-25T04:42:40.985Z,54.50
2018-11-25T04:45:22.975Z,54.50
2018-11-25T04:46:22.985Z,54.10
2018-11-25T04:47:22.766Z,54.40
2018-11-25T04:48:22.792Z,52.60
2018-11-25T04:49:22.600Z,52.00
2018-11-25T04:50:22.625Z,51.40
2018-11-25T04:51:22.427Z,51.90
2018-11-25T04:52:22.401Z,51.00
2018-11-25T04:53:22.252Z,50.10
2018-11-25T04:54:22.208Z,47.10
2018-11-25T04:55:22.128Z,46.80
2018-11-25T04:56:22.137Z,46.00
2018-11-25T04:57:21.912Z,45.10
2018-11-25T04:58:21.921Z,45.90
2018-11-25T04:59:21.740Z,45.90
2018-11-25T05:00:21.784Z,47.30
2018-11-25T05:01:21.618Z,46.50
2018-11-25T05:02:21.555Z,44.60
2018-11-25T05:03:21.410Z,44.20
2018-11-25T05:04:21.359Z,45.70
2018-11-25T05:05:21.230Z,43.30
2018-11-25T05:06:21.296Z,43.20
2018-11-25T05:07:21.065Z,43.30
2018-11-25T05:08:21.077Z,43.20
2018-11-25T05:09:20.893Z,41.70
2018-11-25T05:12:02.972Z,41.60
2018-11-25T05:13:02.980Z,41.30
2018-11-25T05:14:02.779Z,40.70
2018-11-25T05:15:02.789Z,40.60
2018-11-25T05:16:02.605Z,41.40
2018-11-25T05:17:02.633Z,40.50
2018-11-25T05:18:02.428Z,41.30
2018-11-25T05:20:44.443Z,40.50
2018-11-25T05:21:44.552Z,40.10
2018-11-25T05:22:44.271Z,41.90
2018-11-25T05:23:44.315Z,42.90
2018-11-25T05:24:44.100Z,41.00
2018-11-25T05:25:44.133Z,42.50
2018-11-25T05:26:43.934Z,42.40
2018-11-25T05:27:43.967Z,42.70
2018-11-25T05:28:43.761Z,43.30
2018-11-25T05:29:43.741Z,42.50
2018-11-25T05:30:43.600Z,43.80
2018-11-25T05:31:44.606Z,43.20
2018-11-25T05:32:43.445Z,43.30
2018-11-25T05:33:43.468Z,42.70
2018-11-25T05:34:43.248Z,43.90
2018-11-25T05:37:25.473Z,41.90
2018-11-25T05:38:25.470Z,42.40
2018-11-25T05:39:25.278Z,41.60
2018-11-25T05:40:25.277Z,41.40
2018-11-25T05:41:25.106Z,42.40
2018-11-25T05:42:25.126Z,41.50
2018-11-25T05:43:24.933Z,41.90
2018-11-25T05:44:24.894Z,39.70
2018-11-25T05:45:24.768Z,41.20
2018-11-25T05:46:24.714Z,42.00
2018-11-25T05:47:24.594Z,40.70
2018-11-25T05:48:24.656Z,40.80
2018-11-25T05:49:24.420Z,41.40
2018-11-25T05:50:25.038Z,42.70
2018-11-25T05:51:24.244Z,40.20
2018-11-25T05:52:24.241Z,40.90
2018-11-25T05:53:24.115Z,41.10
2018-11-25T05:54:24.052Z,41.10
2018-11-25T05:55:23.910Z,41.10
2018-11-25T05:56:23.962Z,40.10
2018-11-25T05:57:23.738Z,40.90
2018-11-25T05:58:23.761Z,42.20
2018-11-25T05:59:23.613Z,40.00
2018-11-25T06:00:23.564Z,40.80
2018-11-25T06:01:23.399Z,40.90
2018-11-25T06:02:23.371Z,41.60
2018-11-25T06:03:23.252Z,39.30
2018-11-25T06:04:23.203Z,41.70
2018-11-25T06:05:23.053Z,40.90
2018-11-25T06:06:23.093Z,40.10
2018-11-25T06:07:22.882Z,39.80
2018-11-25T06:08:22.970Z,39.60
2018-11-25T06:09:22.735Z,39.90
2018-11-25T06:10:22.720Z,39.40
2018-11-25T06:11:22.556Z,40.30
2018-11-25T06:12:22.522Z,40.90
2018-11-25T06:13:22.374Z,39.80
2018-11-25T06:14:22.371Z,39.60
2018-11-25T06:15:22.197Z,39.30
2018-11-25T06:16:22.145Z,38.50
2018-11-25T06:17:22.035Z,38.30
2018-11-25T06:18:22.045Z,39.30
2018-11-25T06:19:21.890Z,38.10
2018-11-25T06:20:21.858Z,37.70
2018-11-25T06:21:21.689Z,36.40
2018-11-25T06:22:21.667Z,37.20
2018-11-25T06:23:21.513Z,37.50
2018-11-25T06:24:21.506Z,35.90
2018-11-25T06:25:21.338Z,38.00
2018-11-25T06:28:03.458Z,36.70
2018-11-25T06:29:03.530Z,37.00
2018-11-25T06:30:03.288Z,36.40
2018-11-25T06:31:03.297Z,35.50
2018-11-25T06:32:03.110Z,34.20
2018-11-25T06:34:44.978Z,34.20
2018-11-25T06:37:26.954Z,33.50
2018-11-25T06:38:26.998Z,33.70
2018-11-25T06:39:26.826Z,34.40
2018-11-25T06:40:26.813Z,33.10
2018-11-25T07:03:06.917Z,34.20
2018-11-25T07:04:06.710Z,33.50
2018-11-25T07:05:06.903Z,33.50
2018-11-25T07:06:06.540Z,31.80
2018-11-25T07:07:08.583Z,33.70
2018-11-25T07:08:06.385Z,33.10
2018-11-25T07:10:48.488Z,33.50
2018-11-25T07:11:48.418Z,32.90
2018-11-25T07:12:48.438Z,33.40
2018-11-25T07:13:48.335Z,33.60
2018-11-25T07:14:48.130Z,33.20
2018-11-25T07:15:48.177Z,41.50
2018-11-25T07:16:47.946Z,50.20
2018-11-25T07:17:47.948Z,49.50
2018-11-25T07:18:47.774Z,45.60
2018-11-25T07:19:47.750Z,46.70
2018-11-25T07:20:47.637Z,43.90
2018-11-25T07:23:33.502Z,34.20
2018-11-25T07:24:33.444Z,35.90
2018-11-25T07:25:33.295Z,34.90
2018-11-25T07:28:37.058Z,31.40
2018-11-25T07:29:36.887Z,32.50
2018-11-25T07:30:36.881Z,32.70
2018-11-25T07:31:36.751Z,34.10
2018-11-25T07:32:36.673Z,32.60
2018-11-25T07:33:36.570Z,32.70
2018-11-25T07:34:36.599Z,32.60
2018-11-25T07:35:36.370Z,32.00
2018-11-25T07:36:36.468Z,31.40
2018-11-25T07:37:36.225Z,32.30
2018-11-25T07:38:36.202Z,30.90
2018-11-25T07:39:36.029Z,31.40
2018-11-25T07:40:36.022Z,32.50
2018-11-25T07:41:35.872Z,31.30
2018-11-25T07:42:35.853Z,31.30
2018-11-25T07:43:35.681Z,31.20
2018-11-25T07:44:35.627Z,32.10
2018-11-25T07:45:35.512Z,31.90
2018-11-25T07:46:35.579Z,31.90
2018-11-25T07:47:35.373Z,32.20
2018-11-25T07:48:35.384Z,31.60
2018-11-25T07:49:35.167Z,31.40
2018-11-25T07:50:35.155Z,32.30
2018-11-25T07:51:35.011Z,32.00
2018-11-25T07:52:34.970Z,31.80
2018-11-25T07:53:34.885Z,31.30
2018-11-25T07:54:34.783Z,32.10
2018-11-25T07:55:34.671Z,32.90
2018-11-25T07:56:34.688Z,33.60
2018-11-25T07:57:34.519Z,33.60
2018-11-25T07:58:34.541Z,33.60
2018-11-25T07:59:34.323Z,32.70
2018-11-25T08:00:34.301Z,33.90
2018-11-25T08:01:34.153Z,33.10
2018-11-25T08:02:41.362Z,33.30
2018-11-25T08:03:33.984Z,32.80
2018-11-25T08:04:33.915Z,32.80
2018-11-25T08:05:33.822Z,33.10
2018-11-25T08:06:33.827Z,33.50
2018-11-25T08:07:33.635Z,31.70
2018-11-25T08:08:33.671Z,33.30
2018-11-25T08:09:33.464Z,32.20
2018-11-25T08:10:33.443Z,33.50
2018-11-25T08:11:33.288Z,34.10
2018-11-25T08:12:33.249Z,32.50
2018-11-25T08:13:33.156Z,31.70
2018-11-25T08:14:33.065Z,31.80
2018-11-25T08:15:32.965Z,32.30
2018-11-25T08:16:32.975Z,31.20
2018-11-25T08:17:32.784Z,31.10
2018-11-25T08:18:32.832Z,30.30
2018-11-25T08:19:32.646Z,31.50
2018-11-25T08:20:32.587Z,32.60
2018-11-25T08:21:32.441Z,30.80
2018-11-25T08:22:32.412Z,31.50
2018-11-25T08:23:32.426Z,31.10
2018-11-25T08:24:32.220Z,31.80
2018-11-25T08:25:32.114Z,31.90
2018-11-25T08:26:32.114Z,30.40
2018-11-25T08:27:31.937Z,31.70
2018-11-25T08:28:31.974Z,31.30
2018-11-25T08:29:31.748Z,31.50
2018-11-25T08:30:31.738Z,31.50
2018-11-25T08:31:31.581Z,31.70
2018-11-25T08:32:31.547Z,31.80
2018-11-25T08:33:31.453Z,31.80
2018-11-25T08:34:31.395Z,33.00
2018-11-25T08:35:31.241Z,32.80
2018-11-25T08:36:31.272Z,31.70
2018-11-25T08:37:31.080Z,31.60
2018-11-25T08:38:31.171Z,31.80
2018-11-25T08:39:30.924Z,32.10
2018-11-25T08:40:30.890Z,31.40
2018-11-25T08:41:30.739Z,31.80
2018-11-25T08:42:30.687Z,32.50
2018-11-25T08:43:30.576Z,30.50
2018-11-25T08:44:30.525Z,31.10
2018-11-25T08:45:30.404Z,30.40
2018-11-25T08:46:30.402Z,29.70
2018-11-25T08:47:30.231Z,30.30
2018-11-25T08:48:30.217Z,30.00
2018-11-25T08:49:30.081Z,29.80
2018-11-25T08:52:11.986Z,29.50
2018-11-25T08:53:11.930Z,28.70
2018-11-25T08:54:11.842Z,29.60
2018-11-25T08:55:12.785Z,29.80
2018-11-25T08:56:11.661Z,30.50
2018-11-25T08:57:11.635Z,29.50
2018-11-25T08:58:11.470Z,29.50
2018-11-25T08:59:11.444Z,28.40
2018-11-25T09:00:11.358Z,29.10
2018-11-25T09:01:11.566Z,29.00
2018-11-25T09:02:11.133Z,28.80
2018-11-25T09:04:53.026Z,28.60
2018-11-25T09:05:52.960Z,27.50
2018-11-25T09:06:52.825Z,28.70
2018-11-25T09:07:52.802Z,28.30
2018-11-25T09:08:52.716Z,29.30
2018-11-25T09:09:52.676Z,28.80
2018-11-25T09:10:52.485Z,29.10
2018-11-25T09:13:45.982Z,29.40
2018-11-25T09:14:45.956Z,29.40
2018-11-25T09:15:45.856Z,27.90
2018-11-25T09:16:45.763Z,28.50
2018-11-25T09:17:45.643Z,27.90
2018-11-25T09:18:45.685Z,28.30
2018-11-25T09:19:45.590Z,29.10
2018-11-25T09:20:45.510Z,27.90
2018-11-25T09:21:45.308Z,27.80
2018-11-25T09:22:45.315Z,28.20
2018-11-25T09:23:45.145Z,27.80
2018-11-25T09:24:45.103Z,28.80
2018-11-25T09:25:44.994Z,27.50
2018-11-25T09:26:44.912Z,29.40
2018-11-25T09:27:44.808Z,27.00
2018-11-25T09:28:44.893Z,27.70
2018-11-25T09:31:53.518Z,27.60
2018-11-25T09:32:53.455Z,28.00
2018-11-25T09:33:53.324Z,27.30
2018-11-25T09:34:53.257Z,27.90
2018-11-25T09:35:53.140Z,27.70
2018-11-25T09:36:53.213Z,26.20
2018-11-25T09:37:52.983Z,26.70
2018-11-25T09:38:52.973Z,26.70
2018-11-25T09:39:52.806Z,27.00
2018-11-25T09:40:59.175Z,26.60
2018-11-25T09:41:52.664Z,26.30
2018-11-25T09:42:52.633Z,25.90
2018-11-25T09:43:52.458Z,27.40
2018-11-25T09:44:52.502Z,26.90
2018-11-25T09:45:52.308Z,26.90
2018-11-25T09:46:52.357Z,26.70
2018-11-25T09:47:52.176Z,27.00
2018-11-25T09:48:52.123Z,24.90
2018-11-25T09:49:51.951Z,26.60
2018-11-25T09:50:51.930Z,26.50
2018-11-25T09:51:51.790Z,26.80
2018-11-25T09:52:51.997Z,26.00
2018-11-25T09:53:51.645Z,26.50
2018-11-25T09:54:51.653Z,26.70
2018-11-25T09:55:51.464Z,26.40
2018-11-25T09:56:51.538Z,26.20
2018-11-25T09:57:51.289Z,26.30
2018-11-25T09:58:54.425Z,26.70
2018-11-25T09:59:51.164Z,25.10
2018-11-25T10:00:51.083Z,26.70
2018-11-25T10:01:50.946Z,26.30
2018-11-25T10:02:50.886Z,25.20
2018-11-25T10:03:50.816Z,26.00
2018-11-25T10:04:50.815Z,25.90
2018-11-25T10:05:50.602Z,26.10
2018-11-25T10:06:50.599Z,26.10
2018-11-25T10:07:50.426Z,25.40
2018-11-25T10:08:50.457Z,26.30
2018-11-25T10:09:50.262Z,25.70
2018-11-25T10:10:52.683Z,24.70
2018-11-25T10:11:50.122Z,26.30
2018-11-25T10:12:50.174Z,25.70
2018-11-25T10:13:49.952Z,25.70
2018-11-25T10:14:49.943Z,25.20
2018-11-25T10:15:49.752Z,25.00
2018-11-25T10:16:49.979Z,26.10
2018-11-25T10:17:49.590Z,26.10
2018-11-25T10:18:51.103Z,24.80
2018-11-25T10:19:49.563Z,25.20
2018-11-25T10:20:49.367Z,25.80
2018-11-25T10:21:49.253Z,26.10
2018-11-25T10:22:49.293Z,25.40
2018-11-25T10:23:49.091Z,26.20
2018-11-25T10:24:49.121Z,26.10
2018-11-25T10:25:48.925Z,26.00
2018-11-25T10:26:48.894Z,26.00
2018-11-25T10:27:48.761Z,27.70
2018-11-25T10:28:48.752Z,26.70
2018-11-25T10:29:48.569Z,25.80
2018-11-25T10:30:48.631Z,26.50
2018-11-25T10:31:48.410Z,25.10
2018-11-25T10:32:48.417Z,26.30
2018-11-25T10:33:48.231Z,27.80
2018-11-25T10:34:48.276Z,27.80
2018-11-25T10:35:48.068Z,27.20
2018-11-25T10:36:48.040Z,26.30
2018-11-25T10:37:47.885Z,27.50
2018-11-25T10:38:47.858Z,27.10
2018-11-25T10:39:47.922Z,26.20
2018-11-25T10:40:47.758Z,27.70
2018-11-25T10:41:47.560Z,27.50
2018-11-25T10:42:47.571Z,28.50
2018-11-25T10:43:47.383Z,27.30
2018-11-25T10:44:47.380Z,28.70
2018-11-25T10:45:47.306Z,28.10
2018-11-25T10:46:47.206Z,90.60
2018-11-25T10:47:47.059Z,215.20
2018-11-25T10:48:46.999Z,194.00
2018-11-25T10:49:46.916Z,118.00
2018-11-25T10:50:51.076Z,57.40
2018-11-25T10:51:46.727Z,40.50
2018-11-25T10:52:46.716Z,31.90
2018-11-25T10:53:46.556Z,28.90
2018-11-25T10:54:46.535Z,28.70
2018-11-25T10:55:46.431Z,29.40
2018-11-25T10:56:46.339Z,28.70
2018-11-25T10:57:46.217Z,29.70
2018-11-25T10:58:46.263Z,29.20
2018-11-25T10:59:46.064Z,28.90
2018-11-25T11:00:46.090Z,29.10
2018-11-25T11:01:45.888Z,29.00
2018-11-25T11:02:45.883Z,29.50
2018-11-25T11:03:45.697Z,29.10
2018-11-25T11:04:45.697Z,31.00
2018-11-25T11:05:45.578Z,30.50
2018-11-25T11:06:45.468Z,29.60
2018-11-25T11:07:45.368Z,30.40
2018-11-25T11:10:27.533Z,29.20
2018-11-25T11:11:27.518Z,30.40
2018-11-25T11:12:27.333Z,29.30
2018-11-25T11:13:27.289Z,30.40
2018-11-25T11:14:27.167Z,31.10
2018-11-25T11:15:27.208Z,29.90
2018-11-25T11:16:27.021Z,30.70
2018-11-25T11:17:27.010Z,31.20
2018-11-25T11:18:26.826Z,30.80
2018-11-25T11:21:09.044Z,31.20
2018-11-25T11:22:29.896Z,31.40
2018-11-25T11:23:08.837Z,30.40
2018-11-25T11:24:08.833Z,29.90
2018-11-25T11:27:12.190Z,29.50
2018-11-25T11:28:12.035Z,30.90
2018-11-25T11:29:11.837Z,30.20
2018-11-25T11:30:11.884Z,30.50
2018-11-25T11:34:18.500Z,30.60
2018-11-25T11:35:18.556Z,29.60
2018-11-25T11:36:18.361Z,30.70
2018-11-25T11:39:04.525Z,31.90
2018-11-25T11:42:12.539Z,30.70
2018-11-25T11:43:12.537Z,30.30
2018-11-25T11:44:12.361Z,31.10
2018-11-25T11:45:12.351Z,30.90
2018-11-25T11:46:12.173Z,31.00
2018-11-25T11:49:30.552Z,31.30
2018-11-25T11:50:30.519Z,30.50
2018-11-25T11:51:30.385Z,30.50
2018-11-25T11:52:30.369Z,30.50
2018-11-25T11:53:30.213Z,30.70
2018-11-25T11:54:30.252Z,29.30
2018-11-25T11:55:30.044Z,30.60
2018-11-25T11:58:12.221Z,30.10
2018-11-25T11:59:12.029Z,31.20
2018-11-25T12:00:11.833Z,30.00
2018-11-25T12:02:54.029Z,31.00
2018-11-25T12:03:53.931Z,29.80
2018-11-25T12:26:34.190Z,29.70
2018-11-25T12:29:16.028Z,28.80
2018-11-25T12:30:16.058Z,29.50
2018-11-25T12:31:15.852Z,28.90
2018-11-25T12:32:15.844Z,28.00
2018-11-25T12:33:15.667Z,28.60
2018-11-25T12:34:15.653Z,29.30
2018-11-25T12:35:15.551Z,27.90
2018-11-25T12:36:15.450Z,28.60
2018-11-25T12:37:15.359Z,29.00
2018-11-25T12:38:15.536Z,29.50
2018-11-25T12:39:15.176Z,29.30
2018-11-25T12:40:15.216Z,29.70
2018-11-25T12:41:15.037Z,29.50
2018-11-25T12:57:37.882Z,30.70
2018-11-25T12:58:37.850Z,34.10
2018-11-25T12:59:37.701Z,33.40
2018-11-25T13:00:38.798Z,33.60
2018-11-25T13:01:37.525Z,34.60
2018-11-25T13:03:30.596Z,35.50
2018-11-25T13:03:37.336Z,35.30
2018-11-25T13:04:37.354Z,34.60
2018-11-25T13:05:37.200Z,36.00
2018-11-25T13:06:37.159Z,35.20
2018-11-25T13:07:36.980Z,35.90
2018-11-25T13:10:19.024Z,37.40
2018-11-25T13:11:19.008Z,38.30
2018-11-25T13:12:18.863Z,38.10
2018-11-25T13:13:18.883Z,39.80
2018-11-25T13:14:18.742Z,39.00
2018-11-25T13:15:18.681Z,39.80
2018-11-25T13:16:18.551Z,40.40
2018-11-25T13:17:18.510Z,39.70
2018-11-25T13:18:18.336Z,41.40
2018-11-25T13:19:18.339Z,41.20
2018-11-25T13:20:18.200Z,40.80
2018-11-25T13:21:19.318Z,41.80
2018-11-25T13:22:18.049Z,40.40
2018-11-25T13:23:18.030Z,40.80
2018-11-25T13:24:17.872Z,40.50
2018-11-25T13:27:00.077Z,40.40
2018-11-25T13:28:00.044Z,38.90
2018-11-25T13:28:59.875Z,38.50
2018-11-25T13:30:01.897Z,37.70
2018-11-25T13:30:59.709Z,37.40
2018-11-25T13:32:00.729Z,36.70
2018-11-25T13:32:59.521Z,37.00
2018-11-25T13:33:59.479Z,36.40
2018-11-25T13:56:41.130Z,36.80
2018-11-25T13:57:40.987Z,25.50
2018-11-25T13:58:40.896Z,25.60
2018-11-25T13:59:40.806Z,24.70
2018-11-25T14:00:40.796Z,24.60
2018-11-25T14:01:40.603Z,23.20
2018-11-25T14:02:42.607Z,24.40
2018-11-25T14:03:40.438Z,24.10
2018-11-25T14:06:22.540Z,24.10
2018-11-25T14:07:22.522Z,22.30
2018-11-25T14:08:22.402Z,23.00
2018-11-25T14:09:22.331Z,22.90
2018-11-25T14:10:22.192Z,22.50
2018-11-25T14:11:22.252Z,21.60
2018-11-25T14:12:22.023Z,22.20
2018-11-25T14:13:22.994Z,21.70
2018-11-25T14:14:21.863Z,22.20
2018-11-25T14:15:21.892Z,21.70
2018-11-25T14:16:21.688Z,22.10
2018-11-25T14:17:21.684Z,20.60
2018-11-25T14:18:21.564Z,20.60
2018-11-25T14:19:21.483Z,20.20
2018-11-25T14:20:21.340Z,21.50
2018-11-25T14:21:21.394Z,21.40
2018-11-25T14:22:21.167Z,21.50
2018-11-25T14:23:21.220Z,20.80
2018-11-25T14:24:21.069Z,20.30
2018-11-25T14:25:21.023Z,21.40
2018-11-25T14:26:20.901Z,22.30
2018-11-25T14:29:03.088Z,21.30
2018-11-25T14:30:03.050Z,20.50
2018-11-25T14:31:02.928Z,21.20
2018-11-25T14:32:02.898Z,20.20
2018-11-25T14:33:02.704Z,20.40
2018-11-25T14:34:02.724Z,19.90
2018-11-25T14:35:02.533Z,21.30
2018-11-25T14:36:02.619Z,21.40
2018-11-25T14:37:02.359Z,21.70
2018-11-25T14:38:02.341Z,21.00
2018-11-25T14:39:02.208Z,21.60
2018-11-25T14:40:02.193Z,21.30
2018-11-25T14:41:02.038Z,22.60
2018-11-25T14:43:44.100Z,21.90
2018-11-25T14:44:44.158Z,22.90
2018-11-25T14:45:43.914Z,22.50
2018-11-25T14:46:43.873Z,23.00
2018-11-25T14:47:43.746Z,22.20
2018-11-25T14:48:43.692Z,22.90
2018-11-25T14:51:25.615Z,24.10
2018-11-25T14:52:25.520Z,24.90
2018-11-25T14:53:25.487Z,24.80
2018-11-25T14:54:25.295Z,23.60
2018-11-25T14:55:25.296Z,25.70
2018-11-25T14:56:25.148Z,24.00
2018-11-25T14:57:25.035Z,23.50
2018-11-25T14:58:24.943Z,22.10
2018-11-25T14:59:24.924Z,22.10
2018-11-25T15:00:24.886Z,23.90
2018-11-25T15:01:24.721Z,23.10
2018-11-25T15:19:47.912Z,22.80
2018-11-25T15:20:47.674Z,21.60
2018-11-25T15:21:48.850Z,22.70
2018-11-25T15:22:47.759Z,21.90
2018-11-25T15:23:47.493Z,21.30
2018-11-25T15:24:47.337Z,22.20
2018-11-25T15:27:29.570Z,22.00
2018-11-25T15:28:29.496Z,22.00
2018-11-25T15:29:29.381Z,22.70
2018-11-25T15:30:29.417Z,21.00
2018-11-25T15:31:29.203Z,21.80
2018-11-25T15:32:29.273Z,21.80
2018-11-25T15:33:29.123Z,21.10
2018-11-25T15:34:29.048Z,22.30
2018-11-25T15:35:28.877Z,21.50
2018-11-25T15:36:28.852Z,22.70
2018-11-25T15:37:28.735Z,21.00
2018-11-25T15:38:28.693Z,20.20
2018-11-25T15:39:28.542Z,21.60
2018-11-25T15:40:28.557Z,20.70
2018-11-25T15:41:28.378Z,20.10
2018-11-25T15:42:28.408Z,20.00
2018-11-25T15:43:28.212Z,18.90
2018-11-25T15:44:28.172Z,20.40
2018-11-25T15:45:28.069Z,20.60
2018-11-25T15:46:28.000Z,20.50
2018-11-25T15:47:27.838Z,19.50
2018-11-25T15:48:27.944Z,19.40
2018-11-25T15:49:27.671Z,20.00
2018-11-25T15:50:27.713Z,20.40
2018-11-25T15:51:27.499Z,20.50
2018-11-25T15:52:27.513Z,20.10
2018-11-25T15:53:27.393Z,19.80
2018-11-25T15:54:27.314Z,19.70